sensor_id;sensor_type;location;lat;lon;timestamp;P1;durP1;ratioP1;P2;durP2;ratioP2
12042;SDS011;6082;49.306;12.862;2023-02-28T00:00:06;2.97;;;1.63;;
12042;SDS011;6082;49.306;12.862;2023-02-28T00:02:36;1.60;;;1.13;;
12042;SDS011;6082;49.306;12.862;2023-02-28T00:05:02;2.60;;;1.77;;
12042;SDS011;6082;49.306;12.862;2023-02-28T00:07:32;1.40;;;1.30;;
12042;SDS011;6082;49.306;12.862;2023-02-28T00:09:58;2.77;;;1.70;;
12042;SDS011;6082;49.306;12.862;2023-02-28T00:12:25;3.83;;;1.50;;
12042;SDS011;6082;49.306;12.862;2023-02-28T00:14:51;2.30;;;1.10;;
12042;SDS011;6082;49.306;12.862;2023-02-28T00:17:17;1.67;;;1.03;;
12042;SDS011;6082;49.306;12.862;2023-02-28T00:19:49;1.27;;;1.23;;
12042;SDS011;6082;49.306;12.862;2023-02-28T00:22:16;2.03;;;0.97;;
12042;SDS011;6082;49.306;12.862;2023-02-28T00:24:42;2.07;;;1.40;;
12042;SDS011;6082;49.306;12.862;2023-02-28T00:27:08;3.60;;;2.27;;
12042;SDS011;6082;49.306;12.862;2023-02-28T00:29:34;2.10;;;1.73;;
12042;SDS011;6082;49.306;12.862;2023-02-28T00:32:00;8.33;;;1.80;;
12042;SDS011;6082;49.306;12.862;2023-02-28T00:34:26;4.20;;;2.00;;
12042;SDS011;6082;49.306;12.862;2023-02-28T00:36:52;1.40;;;1.30;;
12042;SDS011;6082;49.306;12.862;2023-02-28T00:39:19;3.87;;;1.43;;
12042;SDS011;6082;49.306;12.862;2023-02-28T00:41:45;1.93;;;1.60;;
12042;SDS011;6082;49.306;12.862;2023-02-28T00:44:11;4.67;;;2.00;;
12042;SDS011;6082;49.306;12.862;2023-02-28T00:46:37;1.93;;;1.13;;
12042;SDS011;6082;49.306;12.862;2023-02-28T00:49:03;3.77;;;2.00;;
12042;SDS011;6082;49.306;12.862;2023-02-28T00:51:29;1.90;;;1.70;;
12042;SDS011;6082;49.306;12.862;2023-02-28T00:53:55;2.03;;;1.87;;
12042;SDS011;6082;49.306;12.862;2023-02-28T00:56:21;4.23;;;1.57;;
12042;SDS011;6082;49.306;12.862;2023-02-28T00:58:48;6.10;;;2.10;;
12042;SDS011;6082;49.306;12.862;2023-02-28T01:01:14;3.20;;;1.67;;
12042;SDS011;6082;49.306;12.862;2023-02-28T01:03:40;1.87;;;1.43;;
12042;SDS011;6082;49.306;12.862;2023-02-28T01:06:06;3.43;;;1.57;;
12042;SDS011;6082;49.306;12.862;2023-02-28T01:08:32;1.93;;;1.53;;
12042;SDS011;6082;49.306;12.862;2023-02-28T01:10:58;1.37;;;1.17;;
12042;SDS011;6082;49.306;12.862;2023-02-28T01:13:32;2.17;;;1.53;;
12042;SDS011;6082;49.306;12.862;2023-02-28T01:15:58;3.17;;;2.13;;
12042;SDS011;6082;49.306;12.862;2023-02-28T01:18:24;2.17;;;1.50;;
12042;SDS011;6082;49.306;12.862;2023-02-28T01:20:50;3.13;;;1.80;;
12042;SDS011;6082;49.306;12.862;2023-02-28T01:23:18;2.53;;;1.97;;
12042;SDS011;6082;49.306;12.862;2023-02-28T01:25:45;2.53;;;2.10;;
12042;SDS011;6082;49.306;12.862;2023-02-28T01:28:11;3.17;;;1.67;;
12042;SDS011;6082;49.306;12.862;2023-02-28T01:30:37;3.53;;;1.90;;
12042;SDS011;6082;49.306;12.862;2023-02-28T01:33:03;4.20;;;1.80;;
12042;SDS011;6082;49.306;12.862;2023-02-28T01:35:31;2.90;;;1.93;;
12042;SDS011;6082;49.306;12.862;2023-02-28T01:37:57;4.20;;;1.80;;
12042;SDS011;6082;49.306;12.862;2023-02-28T01:40:23;2.13;;;1.93;;
12042;SDS011;6082;49.306;12.862;2023-02-28T01:42:49;2.80;;;1.97;;
12042;SDS011;6082;49.306;12.862;2023-02-28T01:45:21;2.23;;;1.67;;
12042;SDS011;6082;49.306;12.862;2023-02-28T01:47:48;7.57;;;2.50;;
12042;SDS011;6082;49.306;12.862;2023-02-28T01:50:19;3.17;;;1.83;;
12042;SDS011;6082;49.306;12.862;2023-02-28T01:52:46;3.07;;;2.20;;
12042;SDS011;6082;49.306;12.862;2023-02-28T01:55:13;3.83;;;2.20;;
12042;SDS011;6082;49.306;12.862;2023-02-28T01:57:42;3.73;;;1.73;;
12042;SDS011;6082;49.306;12.862;2023-02-28T02:00:12;4.43;;;2.57;;
12042;SDS011;6082;49.306;12.862;2023-02-28T02:02:43;3.77;;;1.70;;
12042;SDS011;6082;49.306;12.862;2023-02-28T02:05:21;7.47;;;2.70;;
12042;SDS011;6082;49.306;12.862;2023-02-28T02:07:48;2.47;;;1.90;;
12042;SDS011;6082;49.306;12.862;2023-02-28T02:10:19;3.13;;;1.73;;
12042;SDS011;6082;49.306;12.862;2023-02-28T02:15:33;2.80;;;1.70;;
12042;SDS011;6082;49.306;12.862;2023-02-28T02:18:09;4.03;;;2.20;;
12042;SDS011;6082;49.306;12.862;2023-02-28T02:23:50;2.47;;;2.03;;
12042;SDS011;6082;49.306;12.862;2023-02-28T02:29:21;3.10;;;2.80;;
12042;SDS011;6082;49.306;12.862;2023-02-28T02:39:44;4.37;;;1.50;;
12042;SDS011;6082;49.306;12.862;2023-02-28T02:42:20;2.93;;;2.10;;
12042;SDS011;6082;49.306;12.862;2023-02-28T02:44:49;4.77;;;1.97;;
12042;SDS011;6082;49.306;12.862;2023-02-28T02:47:19;1.93;;;1.53;;
12042;SDS011;6082;49.306;12.862;2023-02-28T02:49:50;3.47;;;2.33;;
12042;SDS011;6082;49.306;12.862;2023-02-28T02:52:18;3.33;;;2.50;;
12042;SDS011;6082;49.306;12.862;2023-02-28T02:54:46;2.30;;;1.53;;
12042;SDS011;6082;49.306;12.862;2023-02-28T02:57:15;4.63;;;2.47;;
12042;SDS011;6082;49.306;12.862;2023-02-28T02:59:43;4.43;;;2.47;;
12042;SDS011;6082;49.306;12.862;2023-02-28T03:02:11;2.87;;;1.70;;
12042;SDS011;6082;49.306;12.862;2023-02-28T03:04:40;4.97;;;2.57;;
12042;SDS011;6082;49.306;12.862;2023-02-28T03:07:08;1.83;;;1.63;;
12042;SDS011;6082;49.306;12.862;2023-02-28T03:09:34;3.23;;;1.97;;
12042;SDS011;6082;49.306;12.862;2023-02-28T03:12:00;4.17;;;2.67;;
12042;SDS011;6082;49.306;12.862;2023-02-28T03:27:16;5.80;;;2.30;;
12042;SDS011;6082;49.306;12.862;2023-02-28T03:29:47;4.57;;;2.23;;
12042;SDS011;6082;49.306;12.862;2023-02-28T03:32:25;3.07;;;1.97;;
12042;SDS011;6082;49.306;12.862;2023-02-28T03:34:55;2.83;;;2.43;;
12042;SDS011;6082;49.306;12.862;2023-02-28T03:37:23;6.10;;;2.30;;
12042;SDS011;6082;49.306;12.862;2023-02-28T03:39:55;3.17;;;2.50;;
12042;SDS011;6082;49.306;12.862;2023-02-28T03:42:27;4.73;;;2.67;;
12042;SDS011;6082;49.306;12.862;2023-02-28T03:44:55;4.70;;;2.20;;
12042;SDS011;6082;49.306;12.862;2023-02-28T03:47:36;2.30;;;1.47;;
12042;SDS011;6082;49.306;12.862;2023-02-28T03:50:08;2.93;;;2.10;;
12042;SDS011;6082;49.306;12.862;2023-02-28T03:52:37;4.53;;;2.20;;
12042;SDS011;6082;49.306;12.862;2023-02-28T03:55:07;3.57;;;2.13;;
12042;SDS011;6082;49.306;12.862;2023-02-28T03:57:57;2.50;;;1.83;;
12042;SDS011;6082;49.306;12.862;2023-02-28T04:00:26;3.90;;;2.50;;
12042;SDS011;6082;49.306;12.862;2023-02-28T04:02:56;4.47;;;2.17;;
12042;SDS011;6082;49.306;12.862;2023-02-28T04:05:22;3.97;;;2.30;;
12042;SDS011;6082;49.306;12.862;2023-02-28T04:07:48;4.13;;;2.63;;
12042;SDS011;6082;49.306;12.862;2023-02-28T04:10:16;3.10;;;1.70;;
12042;SDS011;6082;49.306;12.862;2023-02-28T04:12:42;4.53;;;2.80;;
12042;SDS011;6082;49.306;12.862;2023-02-28T04:15:08;4.67;;;2.30;;
12042;SDS011;6082;49.306;12.862;2023-02-28T04:17:35;6.73;;;2.40;;
12042;SDS011;6082;49.306;12.862;2023-02-28T04:20:01;2.10;;;1.50;;
12042;SDS011;6082;49.306;12.862;2023-02-28T04:22:28;2.90;;;2.00;;
12042;SDS011;6082;49.306;12.862;2023-02-28T04:24:54;4.63;;;2.13;;
12042;SDS011;6082;49.306;12.862;2023-02-28T04:27:21;4.83;;;2.47;;
12042;SDS011;6082;49.306;12.862;2023-02-28T04:29:47;3.80;;;2.03;;
12042;SDS011;6082;49.306;12.862;2023-02-28T04:32:13;9.20;;;2.03;;
12042;SDS011;6082;49.306;12.862;2023-02-28T04:34:39;1.67;;;1.57;;
12042;SDS011;6082;49.306;12.862;2023-02-28T04:37:05;3.90;;;2.10;;
12042;SDS011;6082;49.306;12.862;2023-02-28T04:39:34;6.93;;;2.53;;
12042;SDS011;6082;49.306;12.862;2023-02-28T04:42:00;2.53;;;1.60;;
12042;SDS011;6082;49.306;12.862;2023-02-28T04:44:26;3.20;;;2.17;;
12042;SDS011;6082;49.306;12.862;2023-02-28T04:46:52;2.90;;;2.03;;
12042;SDS011;6082;49.306;12.862;2023-02-28T04:49:18;6.00;;;1.70;;
12042;SDS011;6082;49.306;12.862;2023-02-28T04:51:44;3.63;;;1.70;;
12042;SDS011;6082;49.306;12.862;2023-02-28T04:54:11;6.33;;;2.30;;
12042;SDS011;6082;49.306;12.862;2023-02-28T04:56:38;1.53;;;0.97;;
12042;SDS011;6082;49.306;12.862;2023-02-28T04:59:04;1.57;;;1.47;;
12042;SDS011;6082;49.306;12.862;2023-02-28T05:01:31;3.63;;;1.80;;
12042;SDS011;6082;49.306;12.862;2023-02-28T05:03:58;2.43;;;1.83;;
12042;SDS011;6082;49.306;12.862;2023-02-28T05:06:25;2.97;;;2.67;;
12042;SDS011;6082;49.306;12.862;2023-02-28T05:08:52;3.23;;;2.40;;
12042;SDS011;6082;49.306;12.862;2023-02-28T05:11:23;3.30;;;2.37;;
12042;SDS011;6082;49.306;12.862;2023-02-28T05:13:50;3.93;;;2.27;;
12042;SDS011;6082;49.306;12.862;2023-02-28T05:16:17;10.27;;;2.50;;
12042;SDS011;6082;49.306;12.862;2023-02-28T05:18:43;5.50;;;1.97;;
12042;SDS011;6082;49.306;12.862;2023-02-28T05:24:06;4.20;;;1.90;;
12042;SDS011;6082;49.306;12.862;2023-02-28T05:26:34;2.73;;;1.17;;
12042;SDS011;6082;49.306;12.862;2023-02-28T05:29:00;4.80;;;1.40;;
12042;SDS011;6082;49.306;12.862;2023-02-28T05:31:27;3.30;;;1.60;;
12042;SDS011;6082;49.306;12.862;2023-02-28T05:33:53;4.53;;;2.57;;
12042;SDS011;6082;49.306;12.862;2023-02-28T05:36:19;3.67;;;2.50;;
12042;SDS011;6082;49.306;12.862;2023-02-28T05:38:46;3.07;;;1.40;;
12042;SDS011;6082;49.306;12.862;2023-02-28T05:41:16;3.47;;;1.67;;
12042;SDS011;6082;49.306;12.862;2023-02-28T05:43:42;2.77;;;2.00;;
12042;SDS011;6082;49.306;12.862;2023-02-28T05:46:09;2.93;;;1.63;;
12042;SDS011;6082;49.306;12.862;2023-02-28T05:48:37;9.07;;;3.03;;
12042;SDS011;6082;49.306;12.862;2023-02-28T05:51:04;4.40;;;2.70;;
12042;SDS011;6082;49.306;12.862;2023-02-28T05:53:30;3.53;;;3.00;;
12042;SDS011;6082;49.306;12.862;2023-02-28T05:55:56;3.13;;;2.13;;
12042;SDS011;6082;49.306;12.862;2023-02-28T05:58:23;2.97;;;2.30;;
12042;SDS011;6082;49.306;12.862;2023-02-28T06:00:50;1.63;;;1.53;;
12042;SDS011;6082;49.306;12.862;2023-02-28T06:03:16;8.87;;;3.23;;
12042;SDS011;6082;49.306;12.862;2023-02-28T06:05:42;6.87;;;2.87;;
12042;SDS011;6082;49.306;12.862;2023-02-28T06:08:08;4.43;;;2.93;;
12042;SDS011;6082;49.306;12.862;2023-02-28T06:10:35;3.97;;;2.87;;
12042;SDS011;6082;49.306;12.862;2023-02-28T06:13:01;5.33;;;1.57;;
12042;SDS011;6082;49.306;12.862;2023-02-28T06:15:30;2.70;;;1.87;;
12042;SDS011;6082;49.306;12.862;2023-02-28T06:17:57;5.80;;;3.03;;
12042;SDS011;6082;49.306;12.862;2023-02-28T06:20:23;4.47;;;3.40;;
12042;SDS011;6082;49.306;12.862;2023-02-28T06:22:49;4.50;;;2.97;;
12042;SDS011;6082;49.306;12.862;2023-02-28T06:25:16;3.77;;;1.83;;
12042;SDS011;6082;49.306;12.862;2023-02-28T06:27:42;4.43;;;2.83;;
12042;SDS011;6082;49.306;12.862;2023-02-28T06:30:09;4.13;;;2.60;;
12042;SDS011;6082;49.306;12.862;2023-02-28T06:32:35;4.87;;;3.07;;
12042;SDS011;6082;49.306;12.862;2023-02-28T06:35:01;4.53;;;2.40;;
12042;SDS011;6082;49.306;12.862;2023-02-28T06:37:28;5.00;;;2.50;;
12042;SDS011;6082;49.306;12.862;2023-02-28T06:39:54;2.83;;;1.77;;
12042;SDS011;6082;49.306;12.862;2023-02-28T06:42:23;6.80;;;2.93;;
12042;SDS011;6082;49.306;12.862;2023-02-28T06:44:57;3.50;;;2.17;;
12042;SDS011;6082;49.306;12.862;2023-02-28T06:47:23;4.27;;;2.10;;
12042;SDS011;6082;49.306;12.862;2023-02-28T06:49:49;3.87;;;2.23;;
12042;SDS011;6082;49.306;12.862;2023-02-28T06:52:15;2.57;;;1.73;;
12042;SDS011;6082;49.306;12.862;2023-02-28T06:54:41;4.13;;;2.33;;
12042;SDS011;6082;49.306;12.862;2023-02-28T06:57:07;6.93;;;2.23;;
12042;SDS011;6082;49.306;12.862;2023-02-28T06:59:34;4.77;;;2.70;;
12042;SDS011;6082;49.306;12.862;2023-02-28T07:02:01;5.50;;;2.90;;
12042;SDS011;6082;49.306;12.862;2023-02-28T07:04:27;4.27;;;1.87;;
12042;SDS011;6082;49.306;12.862;2023-02-28T07:06:54;2.77;;;2.20;;
12042;SDS011;6082;49.306;12.862;2023-02-28T07:09:21;1.97;;;1.77;;
12042;SDS011;6082;49.306;12.862;2023-02-28T07:11:48;3.53;;;1.83;;
12042;SDS011;6082;49.306;12.862;2023-02-28T07:14:14;3.17;;;2.50;;
12042;SDS011;6082;49.306;12.862;2023-02-28T07:16:40;4.47;;;2.40;;
12042;SDS011;6082;49.306;12.862;2023-02-28T07:19:08;4.73;;;2.50;;
12042;SDS011;6082;49.306;12.862;2023-02-28T07:21:34;5.00;;;2.53;;
12042;SDS011;6082;49.306;12.862;2023-02-28T07:24:00;5.57;;;2.53;;
12042;SDS011;6082;49.306;12.862;2023-02-28T07:26:26;4.23;;;2.57;;
12042;SDS011;6082;49.306;12.862;2023-02-28T07:28:52;4.40;;;2.70;;
12042;SDS011;6082;49.306;12.862;2023-02-28T07:31:19;2.13;;;1.70;;
12042;SDS011;6082;49.306;12.862;2023-02-28T07:33:48;4.07;;;2.60;;
12042;SDS011;6082;49.306;12.862;2023-02-28T07:36:15;4.53;;;2.87;;
12042;SDS011;6082;49.306;12.862;2023-02-28T07:38:43;3.10;;;1.23;;
12042;SDS011;6082;49.306;12.862;2023-02-28T07:41:09;4.53;;;2.30;;
12042;SDS011;6082;49.306;12.862;2023-02-28T07:43:36;7.67;;;2.83;;
12042;SDS011;6082;49.306;12.862;2023-02-28T07:46:06;3.53;;;2.33;;
12042;SDS011;6082;49.306;12.862;2023-02-28T07:48:32;4.13;;;2.37;;
12042;SDS011;6082;49.306;12.862;2023-02-28T07:50:59;5.13;;;3.03;;
12042;SDS011;6082;49.306;12.862;2023-02-28T07:53:26;4.00;;;2.67;;
12042;SDS011;6082;49.306;12.862;2023-02-28T07:55:59;8.00;;;3.00;;
12042;SDS011;6082;49.306;12.862;2023-02-28T07:58:26;4.23;;;3.13;;
12042;SDS011;6082;49.306;12.862;2023-02-28T08:00:52;3.40;;;2.27;;
12042;SDS011;6082;49.306;12.862;2023-02-28T08:03:19;4.13;;;2.53;;
12042;SDS011;6082;49.306;12.862;2023-02-28T08:05:45;4.83;;;2.03;;
12042;SDS011;6082;49.306;12.862;2023-02-28T08:08:12;5.27;;;3.40;;
12042;SDS011;6082;49.306;12.862;2023-02-28T08:10:39;8.77;;;3.63;;
12042;SDS011;6082;49.306;12.862;2023-02-28T08:13:05;4.20;;;2.70;;
12042;SDS011;6082;49.306;12.862;2023-02-28T08:15:31;4.30;;;2.53;;
12042;SDS011;6082;49.306;12.862;2023-02-28T08:17:57;6.50;;;3.37;;
12042;SDS011;6082;49.306;12.862;2023-02-28T08:20:23;3.77;;;2.47;;
12042;SDS011;6082;49.306;12.862;2023-02-28T08:22:50;4.30;;;2.80;;
12042;SDS011;6082;49.306;12.862;2023-02-28T08:25:16;6.93;;;3.30;;
12042;SDS011;6082;49.306;12.862;2023-02-28T08:27:42;3.87;;;2.60;;
12042;SDS011;6082;49.306;12.862;2023-02-28T08:30:11;4.27;;;2.83;;
12042;SDS011;6082;49.306;12.862;2023-02-28T08:32:38;2.60;;;2.00;;
12042;SDS011;6082;49.306;12.862;2023-02-28T08:35:04;5.43;;;3.33;;
12042;SDS011;6082;49.306;12.862;2023-02-28T08:37:31;4.93;;;2.70;;
12042;SDS011;6082;49.306;12.862;2023-02-28T08:39:57;6.83;;;2.70;;
12042;SDS011;6082;49.306;12.862;2023-02-28T08:42:23;2.77;;;2.20;;
12042;SDS011;6082;49.306;12.862;2023-02-28T08:44:49;3.80;;;2.87;;
12042;SDS011;6082;49.306;12.862;2023-02-28T08:47:16;7.00;;;3.43;;
12042;SDS011;6082;49.306;12.862;2023-02-28T08:49:42;5.50;;;3.60;;
12042;SDS011;6082;49.306;12.862;2023-02-28T08:52:08;6.20;;;3.13;;
12042;SDS011;6082;49.306;12.862;2023-02-28T08:54:34;5.37;;;3.37;;
12042;SDS011;6082;49.306;12.862;2023-02-28T08:57:01;6.90;;;3.70;;
12042;SDS011;6082;49.306;12.862;2023-02-28T08:59:27;6.07;;;2.80;;
12042;SDS011;6082;49.306;12.862;2023-02-28T09:01:54;7.17;;;3.30;;
12042;SDS011;6082;49.306;12.862;2023-02-28T09:04:20;5.23;;;3.70;;
12042;SDS011;6082;49.306;12.862;2023-02-28T09:06:46;7.20;;;3.60;;
12042;SDS011;6082;49.306;12.862;2023-02-28T09:09:13;4.67;;;2.77;;
12042;SDS011;6082;49.306;12.862;2023-02-28T09:11:39;7.43;;;3.90;;
12042;SDS011;6082;49.306;12.862;2023-02-28T09:14:08;5.53;;;3.07;;
12042;SDS011;6082;49.306;12.862;2023-02-28T09:16:35;7.27;;;3.00;;
12042;SDS011;6082;49.306;12.862;2023-02-28T09:19:01;6.40;;;2.93;;
12042;SDS011;6082;49.306;12.862;2023-02-28T09:21:27;6.77;;;3.77;;
12042;SDS011;6082;49.306;12.862;2023-02-28T09:23:53;6.20;;;3.50;;
12042;SDS011;6082;49.306;12.862;2023-02-28T09:28:45;6.80;;;3.87;;
12042;SDS011;6082;49.306;12.862;2023-02-28T09:31:13;6.20;;;3.50;;
12042;SDS011;6082;49.306;12.862;2023-02-28T09:33:39;6.30;;;3.40;;
12042;SDS011;6082;49.306;12.862;2023-02-28T09:36:05;4.80;;;3.50;;
12042;SDS011;6082;49.306;12.862;2023-02-28T09:38:31;7.10;;;4.03;;
12042;SDS011;6082;49.306;12.862;2023-02-28T09:40:59;7.43;;;3.87;;
12042;SDS011;6082;49.306;12.862;2023-02-28T09:43:26;5.37;;;3.53;;
12042;SDS011;6082;49.306;12.862;2023-02-28T09:45:59;7.73;;;4.03;;
12042;SDS011;6082;49.306;12.862;2023-02-28T09:48:31;7.33;;;3.30;;
12042;SDS011;6082;49.306;12.862;2023-02-28T09:51:11;6.30;;;3.23;;
12042;SDS011;6082;49.306;12.862;2023-02-28T09:53:38;11.30;;;3.70;;
12042;SDS011;6082;49.306;12.862;2023-02-28T10:00:59;11.13;;;4.17;;
12042;SDS011;6082;49.306;12.862;2023-02-28T10:03:30;6.57;;;3.70;;
12042;SDS011;6082;49.306;12.862;2023-02-28T10:08:36;5.27;;;3.40;;
12042;SDS011;6082;49.306;12.862;2023-02-28T10:11:07;8.37;;;3.33;;
12042;SDS011;6082;49.306;12.862;2023-02-28T10:16:07;8.73;;;3.70;;
12042;SDS011;6082;49.306;12.862;2023-02-28T10:18:46;6.40;;;3.27;;
12042;SDS011;6082;49.306;12.862;2023-02-28T10:21:15;7.77;;;3.87;;
12042;SDS011;6082;49.306;12.862;2023-02-28T10:23:43;8.63;;;4.00;;
12042;SDS011;6082;49.306;12.862;2023-02-28T10:26:13;8.23;;;4.33;;
12042;SDS011;6082;49.306;12.862;2023-02-28T10:28:41;7.10;;;4.40;;
12042;SDS011;6082;49.306;12.862;2023-02-28T10:31:08;6.47;;;4.07;;
12042;SDS011;6082;49.306;12.862;2023-02-28T10:33:35;7.13;;;3.43;;
12042;SDS011;6082;49.306;12.862;2023-02-28T10:36:02;6.67;;;4.07;;
12042;SDS011;6082;49.306;12.862;2023-02-28T10:38:36;7.73;;;3.30;;
12042;SDS011;6082;49.306;12.862;2023-02-28T10:41:48;7.60;;;4.00;;
12042;SDS011;6082;49.306;12.862;2023-02-28T10:43:49;6.63;;;3.73;;
12042;SDS011;6082;49.306;12.862;2023-02-28T10:46:15;7.40;;;4.07;;
12042;SDS011;6082;49.306;12.862;2023-02-28T10:48:57;10.07;;;4.67;;
12042;SDS011;6082;49.306;12.862;2023-02-28T10:51:25;6.97;;;4.10;;
12042;SDS011;6082;49.306;12.862;2023-02-28T10:53:59;7.53;;;3.80;;
12042;SDS011;6082;49.306;12.862;2023-02-28T10:56:25;6.83;;;4.33;;
12042;SDS011;6082;49.306;12.862;2023-02-28T11:04:00;7.30;;;4.20;;
12042;SDS011;6082;49.306;12.862;2023-02-28T11:06:28;6.77;;;3.60;;
12042;SDS011;6082;49.306;12.862;2023-02-28T11:08:56;9.83;;;4.20;;
12042;SDS011;6082;49.306;12.862;2023-02-28T11:11:24;7.80;;;3.77;;
12042;SDS011;6082;49.306;12.862;2023-02-28T11:13:55;7.87;;;4.40;;
12042;SDS011;6082;49.306;12.862;2023-02-28T11:16:21;8.80;;;4.37;;
12042;SDS011;6082;49.306;12.862;2023-02-28T11:21:24;5.87;;;3.57;;
12042;SDS011;6082;49.306;12.862;2023-02-28T11:23:53;6.70;;;4.27;;
12042;SDS011;6082;49.306;12.862;2023-02-28T11:26:37;9.33;;;4.60;;
12042;SDS011;6082;49.306;12.862;2023-02-28T11:29:08;6.60;;;4.03;;
12042;SDS011;6082;49.306;12.862;2023-02-28T11:31:36;5.93;;;3.70;;
12042;SDS011;6082;49.306;12.862;2023-02-28T11:34:21;6.17;;;3.47;;
12042;SDS011;6082;49.306;12.862;2023-02-28T11:36:48;7.53;;;3.57;;
12042;SDS011;6082;49.306;12.862;2023-02-28T11:39:14;7.57;;;4.23;;
12042;SDS011;6082;49.306;12.862;2023-02-28T11:41:54;4.83;;;3.23;;
12042;SDS011;6082;49.306;12.862;2023-02-28T11:47:40;8.10;;;3.33;;
12042;SDS011;6082;49.306;12.862;2023-02-28T11:57:32;8.03;;;3.40;;
12042;SDS011;6082;49.306;12.862;2023-02-28T12:05:10;5.27;;;2.93;;
12042;SDS011;6082;49.306;12.862;2023-02-28T12:10:24;7.70;;;3.90;;
12042;SDS011;6082;49.306;12.862;2023-02-28T12:20:24;6.53;;;3.30;;
12042;SDS011;6082;49.306;12.862;2023-02-28T12:23:15;5.00;;;3.50;;
12042;SDS011;6082;49.306;12.862;2023-02-28T12:28:13;5.50;;;3.73;;
12042;SDS011;6082;49.306;12.862;2023-02-28T12:30:49;5.90;;;3.47;;
12042;SDS011;6082;49.306;12.862;2023-02-28T12:33:17;5.27;;;3.37;;
12042;SDS011;6082;49.306;12.862;2023-02-28T12:38:12;6.33;;;4.47;;
12042;SDS011;6082;49.306;12.862;2023-02-28T12:43:09;7.30;;;3.97;;
12042;SDS011;6082;49.306;12.862;2023-02-28T12:45:40;8.13;;;4.07;;
12042;SDS011;6082;49.306;12.862;2023-02-28T12:48:08;5.73;;;3.17;;
12042;SDS011;6082;49.306;12.862;2023-02-28T12:50:35;5.77;;;3.67;;
12042;SDS011;6082;49.306;12.862;2023-02-28T12:58:16;6.80;;;3.50;;
12042;SDS011;6082;49.306;12.862;2023-02-28T13:00:49;8.37;;;3.83;;
12042;SDS011;6082;49.306;12.862;2023-02-28T13:04:03;8.73;;;4.37;;
12042;SDS011;6082;49.306;12.862;2023-02-28T13:08:41;7.17;;;3.97;;
12042;SDS011;6082;49.306;12.862;2023-02-28T13:11:23;6.93;;;4.40;;
12042;SDS011;6082;49.306;12.862;2023-02-28T13:13:56;7.83;;;4.27;;
12042;SDS011;6082;49.306;12.862;2023-02-28T13:16:22;8.80;;;4.17;;
12042;SDS011;6082;49.306;12.862;2023-02-28T13:18:48;8.50;;;4.60;;
12042;SDS011;6082;49.306;12.862;2023-02-28T13:21:25;7.57;;;4.13;;
12042;SDS011;6082;49.306;12.862;2023-02-28T13:34:22;9.00;;;4.47;;
12042;SDS011;6082;49.306;12.862;2023-02-28T13:36:51;7.37;;;3.50;;
12042;SDS011;6082;49.306;12.862;2023-02-28T13:50:40;9.00;;;5.13;;
12042;SDS011;6082;49.306;12.862;2023-02-28T13:52:44;5.93;;;3.90;;
12042;SDS011;6082;49.306;12.862;2023-02-28T14:00:34;8.90;;;4.20;;
12042;SDS011;6082;49.306;12.862;2023-02-28T14:03:06;8.80;;;5.07;;
12042;SDS011;6082;49.306;12.862;2023-02-28T14:05:33;7.03;;;4.20;;
12042;SDS011;6082;49.306;12.862;2023-02-28T14:08:21;8.03;;;4.43;;
12042;SDS011;6082;49.306;12.862;2023-02-28T14:10:47;7.93;;;4.20;;
12042;SDS011;6082;49.306;12.862;2023-02-28T14:15:43;7.47;;;4.00;;
12042;SDS011;6082;49.306;12.862;2023-02-28T14:20:42;8.67;;;4.13;;
12042;SDS011;6082;49.306;12.862;2023-02-28T14:23:12;10.67;;;5.07;;
12042;SDS011;6082;49.306;12.862;2023-02-28T14:28:25;7.90;;;5.07;;
12042;SDS011;6082;49.306;12.862;2023-02-28T14:31:00;6.90;;;3.87;;
12042;SDS011;6082;49.306;12.862;2023-02-28T14:33:45;9.47;;;4.70;;
12042;SDS011;6082;49.306;12.862;2023-02-28T14:36:26;7.77;;;4.20;;
12042;SDS011;6082;49.306;12.862;2023-02-28T14:38:55;7.93;;;4.93;;
12042;SDS011;6082;49.306;12.862;2023-02-28T14:43:58;10.23;;;4.90;;
12042;SDS011;6082;49.306;12.862;2023-02-28T14:46:26;7.53;;;4.90;;
12042;SDS011;6082;49.306;12.862;2023-02-28T14:48:57;8.70;;;5.47;;
12042;SDS011;6082;49.306;12.862;2023-02-28T14:51:24;9.10;;;4.97;;
12042;SDS011;6082;49.306;12.862;2023-02-28T14:53:51;8.43;;;4.53;;
12042;SDS011;6082;49.306;12.862;2023-02-28T14:56:29;7.70;;;4.77;;
12042;SDS011;6082;49.306;12.862;2023-02-28T14:58:56;12.57;;;5.30;;
12042;SDS011;6082;49.306;12.862;2023-02-28T15:01:23;9.23;;;5.50;;
12042;SDS011;6082;49.306;12.862;2023-02-28T15:03:56;9.17;;;5.20;;
12042;SDS011;6082;49.306;12.862;2023-02-28T15:06:23;7.97;;;4.67;;
12042;SDS011;6082;49.306;12.862;2023-02-28T15:09:06;10.20;;;5.50;;
12042;SDS011;6082;49.306;12.862;2023-02-28T15:11:32;9.00;;;4.87;;
12042;SDS011;6082;49.306;12.862;2023-02-28T15:13:58;7.87;;;4.97;;
12042;SDS011;6082;49.306;12.862;2023-02-28T15:16:36;10.80;;;4.87;;
12042;SDS011;6082;49.306;12.862;2023-02-28T15:21:50;9.63;;;5.13;;
12042;SDS011;6082;49.306;12.862;2023-02-28T15:27:03;10.83;;;5.00;;
12042;SDS011;6082;49.306;12.862;2023-02-28T15:29:32;11.10;;;5.03;;
12042;SDS011;6082;49.306;12.862;2023-02-28T15:32:01;14.63;;;4.93;;
12042;SDS011;6082;49.306;12.862;2023-02-28T15:34:30;13.97;;;6.17;;
12042;SDS011;6082;49.306;12.862;2023-02-28T15:36:59;8.20;;;5.10;;
12042;SDS011;6082;49.306;12.862;2023-02-28T15:39:26;9.47;;;5.07;;
12042;SDS011;6082;49.306;12.862;2023-02-28T15:42:12;13.43;;;5.13;;
12042;SDS011;6082;49.306;12.862;2023-02-28T15:44:38;9.03;;;4.70;;
12042;SDS011;6082;49.306;12.862;2023-02-28T15:47:27;9.73;;;5.03;;
12042;SDS011;6082;49.306;12.862;2023-02-28T15:49:52;7.43;;;4.27;;
12042;SDS011;6082;49.306;12.862;2023-02-28T15:52:21;12.60;;;4.80;;
12042;SDS011;6082;49.306;12.862;2023-02-28T15:54:47;10.87;;;4.93;;
12042;SDS011;6082;49.306;12.862;2023-02-28T15:57:15;10.93;;;5.47;;
12042;SDS011;6082;49.306;12.862;2023-02-28T15:59:48;12.77;;;5.47;;
12042;SDS011;6082;49.306;12.862;2023-02-28T16:02:16;8.17;;;5.03;;
12042;SDS011;6082;49.306;12.862;2023-02-28T16:07:21;7.80;;;4.90;;
12042;SDS011;6082;49.306;12.862;2023-02-28T16:09:49;10.60;;;5.73;;
12042;SDS011;6082;49.306;12.862;2023-02-28T16:12:15;11.30;;;5.70;;
12042;SDS011;6082;49.306;12.862;2023-02-28T16:14:41;12.13;;;6.17;;
12042;SDS011;6082;49.306;12.862;2023-02-28T16:17:12;12.03;;;5.17;;
12042;SDS011;6082;49.306;12.862;2023-02-28T16:19:40;11.80;;;5.37;;
12042;SDS011;6082;49.306;12.862;2023-02-28T16:22:07;12.33;;;6.13;;
12042;SDS011;6082;49.306;12.862;2023-02-28T16:24:34;10.33;;;5.33;;
12042;SDS011;6082;49.306;12.862;2023-02-28T16:27:00;14.00;;;6.43;;
12042;SDS011;6082;49.306;12.862;2023-02-28T16:29:27;14.77;;;5.93;;
12042;SDS011;6082;49.306;12.862;2023-02-28T16:31:53;12.90;;;6.77;;
12042;SDS011;6082;49.306;12.862;2023-02-28T16:34:20;12.20;;;6.43;;
12042;SDS011;6082;49.306;12.862;2023-02-28T16:36:47;14.47;;;5.70;;
12042;SDS011;6082;49.306;12.862;2023-02-28T16:39:13;10.23;;;5.43;;
12042;SDS011;6082;49.306;12.862;2023-02-28T16:41:40;12.00;;;6.07;;
12042;SDS011;6082;49.306;12.862;2023-02-28T16:44:09;12.40;;;5.77;;
12042;SDS011;6082;49.306;12.862;2023-02-28T16:46:36;11.50;;;5.93;;
12042;SDS011;6082;49.306;12.862;2023-02-28T16:49:02;13.97;;;5.80;;
12042;SDS011;6082;49.306;12.862;2023-02-28T16:51:28;9.37;;;5.43;;
12042;SDS011;6082;49.306;12.862;2023-02-28T16:53:54;12.57;;;5.57;;
12042;SDS011;6082;49.306;12.862;2023-02-28T16:56:21;12.10;;;6.30;;
12042;SDS011;6082;49.306;12.862;2023-02-28T16:58:49;11.40;;;5.90;;
12042;SDS011;6082;49.306;12.862;2023-02-28T17:01:15;11.40;;;5.57;;
12042;SDS011;6082;49.306;12.862;2023-02-28T17:03:42;9.87;;;5.43;;
12042;SDS011;6082;49.306;12.862;2023-02-28T17:06:16;12.37;;;5.60;;
12042;SDS011;6082;49.306;12.862;2023-02-28T17:08:43;11.27;;;5.27;;
12042;SDS011;6082;49.306;12.862;2023-02-28T17:11:09;9.33;;;5.80;;